createdAt,value
2018-09-25T00:00:17.763Z,3.10
2018-09-25T00:02:51.617Z,2.50
2018-09-25T00:05:25.306Z,2.77
2018-09-25T00:07:59.078Z,2.30
2018-09-25T00:10:32.765Z,4.70
2018-09-25T00:13:06.590Z,3.37
2018-09-25T00:15:40.427Z,2.80
2018-09-25T00:18:14.345Z,3.63
2018-09-25T00:20:47.939Z,3.57
2018-09-25T00:23:21.850Z,4.07
2018-09-25T00:25:55.587Z,2.50
2018-09-25T00:28:29.470Z,1.87
2018-09-25T00:31:03.409Z,2.20
2018-09-25T00:33:37.211Z,2.23
2018-09-25T00:36:11.135Z,2.23
2018-09-25T00:38:45.074Z,2.37
2018-09-25T00:41:19.033Z,3.17
2018-09-25T00:43:52.726Z,2.63
2018-09-25T00:46:26.478Z,2.10
2018-09-25T00:49:00.276Z,2.37
2018-09-25T00:51:34.020Z,2.60
2018-09-25T00:54:07.691Z,2.50
2018-09-25T00:56:41.355Z,2.90
2018-09-25T00:59:15.356Z,2.07
2018-09-25T01:01:48.995Z,2.50
2018-09-25T01:04:22.923Z,2.23
2018-09-25T01:06:56.652Z,2.27
2018-09-25T01:09:30.173Z,2.00
2018-09-25T01:12:03.938Z,2.10
2018-09-25T01:14:37.781Z,2.57
2018-09-25T01:17:11.589Z,2.90
2018-09-25T01:19:45.277Z,2.17
2018-09-25T01:22:19.094Z,2.03
2018-09-25T01:24:52.759Z,2.30
2018-09-25T01:27:26.508Z,2.23
2018-09-25T01:30:00.362Z,2.30
2018-09-25T01:32:34.195Z,2.77
2018-09-25T01:35:07.852Z,1.70
2018-09-25T01:37:41.599Z,2.00
2018-09-25T01:40:15.473Z,2.57
2018-09-25T01:42:50.227Z,2.70
2018-09-25T01:45:23.871Z,1.90
2018-09-25T01:47:57.723Z,2.00
2018-09-25T01:50:31.563Z,1.90
2018-09-25T01:53:05.407Z,2.20
2018-09-25T01:55:39.123Z,1.90
2018-09-25T01:58:12.836Z,2.17
2018-09-25T02:00:46.715Z,1.80
2018-09-25T02:03:20.338Z,2.17
2018-09-25T02:05:54.132Z,2.20
2018-09-25T02:08:27.823Z,1.90
2018-09-25T02:11:01.655Z,3.37
2018-09-25T02:13:35.507Z,2.40
2018-09-25T02:16:09.377Z,2.00
2018-09-25T02:18:43.208Z,2.70
2018-09-25T02:21:16.865Z,1.90
2018-09-25T02:23:50.596Z,2.27
2018-09-25T02:26:24.265Z,2.20
2018-09-25T02:28:57.915Z,2.20
2018-09-25T02:31:31.487Z,2.20
2018-09-25T02:34:05.358Z,2.50
2018-09-25T02:36:38.967Z,3.17
2018-09-25T02:39:15.064Z,3.27
2018-09-25T02:41:49.243Z,2.37
2018-09-25T02:44:23.012Z,2.17
2018-09-25T02:46:56.692Z,1.80
2018-09-25T02:49:30.511Z,2.27
2018-09-25T02:52:04.225Z,2.13
2018-09-25T02:54:37.958Z,2.50
2018-09-25T02:57:11.638Z,2.57
2018-09-25T02:59:45.466Z,1.93
2018-09-25T03:02:19.152Z,2.07
2018-09-25T03:04:52.799Z,2.77
2018-09-25T03:07:26.648Z,1.70
2018-09-25T03:10:00.530Z,2.00
2018-09-25T03:12:34.416Z,2.20
2018-09-25T03:15:08.285Z,2.70
2018-09-25T03:17:42.062Z,2.57
2018-09-25T03:20:15.690Z,2.10
2018-09-25T03:22:49.389Z,2.60
2018-09-25T03:25:23.195Z,1.93
2018-09-25T03:27:56.920Z,2.97
2018-09-25T03:30:30.636Z,1.90
2018-09-25T03:33:04.242Z,2.10
2018-09-25T03:35:37.971Z,2.13
2018-09-25T03:38:11.803Z,2.10
2018-09-25T03:40:45.381Z,1.97
2018-09-25T03:43:19.078Z,1.97
2018-09-25T03:45:52.885Z,2.00
2018-09-25T03:48:26.607Z,2.03
2018-09-25T03:51:00.313Z,5.87
2018-09-25T03:53:33.982Z,1.90
2018-09-25T03:56:07.737Z,2.67
2018-09-25T03:58:41.435Z,1.60
2018-09-25T04:01:15.359Z,2.17
2018-09-25T04:03:48.955Z,1.80
2018-09-25T04:06:22.760Z,2.97
2018-09-25T04:08:56.597Z,1.97
2018-09-25T04:11:30.374Z,2.57
2018-09-25T04:14:04.214Z,2.17
2018-09-25T04:16:37.841Z,2.03
2018-09-25T04:19:11.689Z,1.93
2018-09-25T04:21:45.451Z,2.07
2018-09-25T04:24:19.237Z,1.80
2018-09-25T04:26:52.972Z,2.33
2018-09-25T04:29:26.518Z,1.90
2018-09-25T04:32:00.379Z,2.03
2018-09-25T04:34:34.018Z,1.73
2018-09-25T04:37:07.870Z,1.80
2018-09-25T04:39:41.663Z,2.10
2018-09-25T04:42:15.572Z,2.33
2018-09-25T04:44:49.301Z,1.63
2018-09-25T04:47:23.046Z,2.80
2018-09-25T04:49:56.923Z,2.13
2018-09-25T04:52:30.788Z,1.80
2018-09-25T04:55:04.659Z,1.90
2018-09-25T04:57:38.583Z,3.07
2018-09-25T05:00:12.323Z,1.87
2018-09-25T05:02:46.077Z,1.80
2018-09-25T05:05:19.861Z,1.70
2018-09-25T05:07:53.660Z,1.80
2018-09-25T05:10:27.503Z,2.13
2018-09-25T05:13:01.254Z,1.80
2018-09-25T05:15:35.000Z,2.50
2018-09-25T05:18:08.757Z,2.13
2018-09-25T05:20:42.625Z,1.70
2018-09-25T05:23:16.271Z,2.40
2018-09-25T05:25:49.937Z,1.90
2018-09-25T05:28:23.684Z,1.80
2018-09-25T05:30:57.366Z,2.10
2018-09-25T05:33:30.932Z,1.70
2018-09-25T05:36:04.635Z,2.00
2018-09-25T05:38:38.429Z,2.23
2018-09-25T05:41:12.142Z,1.70
2018-09-25T05:43:45.862Z,3.50
2018-09-25T05:46:19.555Z,1.60
2018-09-25T05:48:53.555Z,1.63
2018-09-25T05:51:27.177Z,1.63
2018-09-25T05:54:01.040Z,1.67
2018-09-25T05:56:34.774Z,1.97
2018-09-25T05:59:08.486Z,2.40
2018-09-25T06:01:42.320Z,1.87
2018-09-25T06:04:15.978Z,2.00
2018-09-25T06:06:49.702Z,1.83
2018-09-25T06:09:23.645Z,1.73
2018-09-25T06:11:57.239Z,1.90
2018-09-25T06:14:31.022Z,1.97
2018-09-25T06:17:04.668Z,1.97
2018-09-25T06:19:38.349Z,1.80
2018-09-25T06:22:12.016Z,2.10
2018-09-25T06:24:45.594Z,2.10
2018-09-25T06:27:19.355Z,1.70
2018-09-25T06:29:52.945Z,1.80
2018-09-25T06:32:26.510Z,1.80
2018-09-25T06:35:00.289Z,1.77
2018-09-25T06:37:34.057Z,4.03
2018-09-25T06:40:07.742Z,6.13
2018-09-25T06:42:41.259Z,7.20
2018-09-25T06:45:15.014Z,5.13
2018-09-25T06:47:48.910Z,4.43
2018-09-25T06:50:22.506Z,3.83
2018-09-25T06:52:56.249Z,6.00
2018-09-25T06:55:30.115Z,9.80
2018-09-25T06:58:03.867Z,6.67
2018-09-25T07:00:37.689Z,4.93
2018-09-25T07:03:11.391Z,5.30
2018-09-25T07:05:45.060Z,4.77
2018-09-25T07:08:18.863Z,6.70
2018-09-25T07:10:52.697Z,4.43
2018-09-25T07:13:26.256Z,5.00
2018-09-25T07:15:59.968Z,4.37
2018-09-25T07:18:33.865Z,8.00
2018-09-25T07:21:07.841Z,9.10
2018-09-25T07:23:41.654Z,17.70
2018-09-25T07:26:15.643Z,32.43
2018-09-25T07:28:49.479Z,36.90
2018-09-25T07:31:23.199Z,36.50
2018-09-25T07:33:56.866Z,32.07
2018-09-25T07:36:30.458Z,20.80
2018-09-25T07:39:04.295Z,24.47
2018-09-25T07:41:38.881Z,29.07
2018-09-25T07:44:12.732Z,14.93
2018-09-25T07:46:47.113Z,19.57
2018-09-25T07:49:20.972Z,15.70
2018-09-25T07:51:54.746Z,19.70
2018-09-25T07:54:29.303Z,18.10
2018-09-25T07:57:03.619Z,12.53
2018-09-25T07:59:38.097Z,16.67
2018-09-25T08:02:11.815Z,30.47
2018-09-25T08:04:45.519Z,32.77
2018-09-25T08:07:19.239Z,32.00
2018-09-25T08:09:53.044Z,17.63
2018-09-25T08:12:27.760Z,36.67
2018-09-25T08:15:01.666Z,47.30
2018-09-25T08:17:35.647Z,28.73
2018-09-25T08:20:09.709Z,25.27
2018-09-25T08:22:43.568Z,23.87
2018-09-25T08:25:17.647Z,32.13
2018-09-25T08:27:51.899Z,22.60
2018-09-25T08:30:25.711Z,11.23
2018-09-25T08:32:59.579Z,25.73
2018-09-25T08:35:33.331Z,28.50
2018-09-25T08:38:07.056Z,31.80
2018-09-25T08:40:41.887Z,18.10
2018-09-25T08:43:15.978Z,15.00
2018-09-25T08:45:49.795Z,18.30
2018-09-25T08:48:23.467Z,16.37
2018-09-25T08:50:57.882Z,17.50
2018-09-25T08:53:31.889Z,11.23
2018-09-25T08:56:06.285Z,10.67
2018-09-25T08:58:40.574Z,10.30
2018-09-25T09:01:14.852Z,17.70
2018-09-25T09:03:48.894Z,29.13
2018-09-25T09:06:23.119Z,10.53
2018-09-25T09:08:56.986Z,14.07
2018-09-25T09:11:30.751Z,8.23
2018-09-25T09:14:04.550Z,7.47
2018-09-25T09:23:50.729Z,9.10
2018-09-25T09:26:24.644Z,7.63
2018-09-25T09:28:58.573Z,8.43
2018-09-25T09:31:32.315Z,22.87
2018-09-25T09:34:05.950Z,12.90
2018-09-25T09:36:39.749Z,13.87
2018-09-25T09:39:14.320Z,15.83
2018-09-25T09:41:48.190Z,10.57
2018-09-25T09:44:21.698Z,8.67
2018-09-25T09:46:55.523Z,11.80
2018-09-25T09:49:29.288Z,12.67
2018-09-25T09:52:02.959Z,13.37
2018-09-25T09:54:36.603Z,14.73
2018-09-25T09:57:10.409Z,8.17
2018-09-25T09:59:44.109Z,10.40
2018-09-25T10:02:17.907Z,11.77
2018-09-25T10:04:51.802Z,10.83
2018-09-25T10:07:25.719Z,14.23
2018-09-25T10:09:59.434Z,13.83
2018-09-25T10:12:33.217Z,17.50
2018-09-25T10:15:06.705Z,31.13
2018-09-25T10:17:40.442Z,37.57
2018-09-25T10:20:14.232Z,35.43
2018-09-25T10:22:47.868Z,35.40
2018-09-25T10:25:21.571Z,36.30
2018-09-25T10:27:55.332Z,35.57
2018-09-25T10:30:29.157Z,32.87
2018-09-25T10:33:02.844Z,26.47
2018-09-25T10:35:36.768Z,24.20
2018-09-25T10:38:10.644Z,20.10
2018-09-25T10:40:44.500Z,37.47
2018-09-25T10:43:18.946Z,39.37
2018-09-25T10:45:52.892Z,17.57
2018-09-25T10:48:26.690Z,12.40
2018-09-25T10:51:00.366Z,16.07
2018-09-25T10:53:34.114Z,19.27
2018-09-25T10:56:07.828Z,21.53
2018-09-25T10:58:41.391Z,18.77
2018-09-25T11:01:15.115Z,16.50
2018-09-25T11:03:48.941Z,16.20
2018-09-25T11:06:22.566Z,15.40
2018-09-25T11:08:56.231Z,12.23
2018-09-25T11:11:29.961Z,12.60
2018-09-25T11:14:03.748Z,11.87
2018-09-25T11:16:37.659Z,14.83
2018-09-25T11:19:11.392Z,8.57
2018-09-25T11:21:44.980Z,9.93
2018-09-25T11:24:18.800Z,11.77
2018-09-25T11:26:52.472Z,7.73
2018-09-25T11:29:26.195Z,14.27
2018-09-25T11:31:59.867Z,15.20
2018-09-25T11:34:33.600Z,18.70
2018-09-25T11:37:07.330Z,19.50
2018-09-25T11:39:41.084Z,22.10
2018-09-25T11:42:15.012Z,22.87
2018-09-25T11:44:48.990Z,27.60
2018-09-25T11:47:22.744Z,31.83
2018-09-25T11:49:56.678Z,23.33
2018-09-25T11:52:30.631Z,23.37
2018-09-25T11:55:04.442Z,23.47
2018-09-25T11:57:38.237Z,16.43
2018-09-25T12:00:12.181Z,19.63
2018-09-25T12:02:45.820Z,17.10
2018-09-25T12:05:19.566Z,15.00
2018-09-25T12:07:53.387Z,12.83
2018-09-25T12:10:27.269Z,16.50
2018-09-25T12:13:01.037Z,13.30
2018-09-25T12:15:34.827Z,18.47
2018-09-25T12:18:08.387Z,19.17
2018-09-25T12:20:42.350Z,19.80
2018-09-25T12:23:16.209Z,18.40
2018-09-25T12:25:49.936Z,15.80
2018-09-25T12:28:23.739Z,13.20
2018-09-25T12:30:57.466Z,16.43
2018-09-25T12:33:31.223Z,17.00
2018-09-25T12:36:04.943Z,14.27
2018-09-25T12:38:38.638Z,12.23
2018-09-25T12:41:13.334Z,23.17
2018-09-25T12:43:47.130Z,17.20
2018-09-25T12:46:20.875Z,15.57
2018-09-25T12:48:54.528Z,12.63
2018-09-25T12:51:28.424Z,10.77
2018-09-25T12:54:02.150Z,15.07
2018-09-25T12:56:35.877Z,11.27
2018-09-25T12:59:09.696Z,17.00
2018-09-25T13:01:43.473Z,16.73
2018-09-25T13:04:17.393Z,10.53
2018-09-25T13:06:51.247Z,14.00
2018-09-25T13:09:24.895Z,13.77
2018-09-25T13:11:58.759Z,9.07
2018-09-25T13:14:32.742Z,18.13
2018-09-25T13:17:06.807Z,9.07
2018-09-25T13:19:40.531Z,11.60
2018-09-25T13:22:15.312Z,35.77
2018-09-25T13:24:49.204Z,20.70
2018-09-25T13:27:23.127Z,17.40
2018-09-25T13:29:56.925Z,14.87
2018-09-25T13:32:30.855Z,13.00
2018-09-25T13:35:04.757Z,17.00
2018-09-25T13:37:38.614Z,14.23
2018-09-25T13:40:12.854Z,11.20
2018-09-25T13:42:47.645Z,12.10
2018-09-25T13:45:21.322Z,10.93
2018-09-25T13:47:55.086Z,13.43
2018-09-25T13:50:28.775Z,14.43
2018-09-25T13:53:02.451Z,9.80
2018-09-25T13:55:36.282Z,10.20
2018-09-25T13:58:09.998Z,13.50
2018-09-25T14:00:43.898Z,7.57
2018-09-25T14:03:17.595Z,10.40
2018-09-25T14:05:51.329Z,9.13
2018-09-25T14:08:25.040Z,12.23
2018-09-25T14:10:58.722Z,7.00
2018-09-25T14:13:32.599Z,9.53
2018-09-25T14:16:06.337Z,10.73
2018-09-25T14:18:40.098Z,10.63
2018-09-25T14:21:13.935Z,6.77
2018-09-25T14:23:47.675Z,9.90
2018-09-25T14:26:21.319Z,11.10
2018-09-25T14:28:54.960Z,8.47
2018-09-25T14:31:28.751Z,13.63
2018-09-25T14:34:02.495Z,9.40
2018-09-25T14:36:36.329Z,8.83
2018-09-25T14:39:11.857Z,10.93
2018-09-25T14:41:45.586Z,7.07
2018-09-25T14:44:19.328Z,7.13
2018-09-25T14:46:53.154Z,7.40
2018-09-25T14:49:26.669Z,6.23
2018-09-25T14:52:00.536Z,9.60
2018-09-25T14:54:34.233Z,8.07
2018-09-25T14:57:07.896Z,6.93
2018-09-25T14:59:41.682Z,6.00
2018-09-25T15:02:15.435Z,6.13
2018-09-25T15:04:49.127Z,9.57
2018-09-25T15:07:23.010Z,8.17
2018-09-25T15:09:56.600Z,6.47
2018-09-25T15:12:30.323Z,8.50
2018-09-25T15:15:04.006Z,10.97
2018-09-25T15:17:37.712Z,6.70
2018-09-25T15:20:11.382Z,6.43
2018-09-25T15:22:45.171Z,6.83
2018-09-25T15:25:18.761Z,12.03
2018-09-25T15:27:52.466Z,6.70
2018-09-25T15:30:26.098Z,7.23
2018-09-25T15:32:59.983Z,6.30
2018-09-25T15:35:33.652Z,5.90
2018-09-25T15:38:07.316Z,6.60
2018-09-25T15:40:41.190Z,7.27
2018-09-25T15:43:14.864Z,9.23
2018-09-25T15:45:48.816Z,5.10
2018-09-25T15:48:22.554Z,7.50
2018-09-25T15:50:56.198Z,5.20
2018-09-25T15:53:30.010Z,7.30
2018-09-25T15:56:03.544Z,8.00
2018-09-25T15:58:37.402Z,7.23
2018-09-25T16:01:11.164Z,6.73
2018-09-25T16:03:45.051Z,5.20
2018-09-25T16:06:18.850Z,4.83
2018-09-25T16:08:52.648Z,6.07
2018-09-25T16:11:26.521Z,7.97
2018-09-25T16:14:00.459Z,7.57
2018-09-25T16:16:34.186Z,4.90
2018-09-25T16:19:08.111Z,5.40
2018-09-25T16:21:41.869Z,4.40
2018-09-25T16:24:15.446Z,7.63
2018-09-25T16:26:49.153Z,6.33
2018-09-25T16:29:23.077Z,5.57
2018-09-25T16:31:56.983Z,5.73
2018-09-25T16:34:30.818Z,6.87
2018-09-25T16:37:04.535Z,5.90
2018-09-25T16:39:38.309Z,5.80
2018-09-25T16:42:12.200Z,4.53
2018-09-25T16:44:45.892Z,5.37
2018-09-25T16:47:19.921Z,5.23
2018-09-25T16:49:53.849Z,4.47
2018-09-25T16:52:27.765Z,4.60
2018-09-25T16:55:01.488Z,5.23
2018-09-25T16:57:35.679Z,5.63
2018-09-25T17:00:09.310Z,4.93
2018-09-25T17:02:43.159Z,4.73
2018-09-25T17:05:16.899Z,6.33
2018-09-25T17:07:50.552Z,7.03
2018-09-25T17:10:24.292Z,6.90
2018-09-25T17:12:58.008Z,9.10
2018-09-25T17:15:31.704Z,5.37
2018-09-25T17:18:05.297Z,4.03
2018-09-25T17:20:39.102Z,5.43
2018-09-25T17:23:12.822Z,4.90
2018-09-25T17:25:46.433Z,6.70
2018-09-25T17:28:20.245Z,4.30
2018-09-25T17:30:54.071Z,5.13
2018-09-25T17:33:27.914Z,4.20
2018-09-25T17:36:01.813Z,4.43
2018-09-25T17:38:35.724Z,7.20
2018-09-25T17:41:09.698Z,7.03
2018-09-25T17:43:43.339Z,3.87
2018-09-25T17:46:18.112Z,4.27
2018-09-25T17:48:53.405Z,4.50
2018-09-25T17:51:27.211Z,4.37
2018-09-25T17:54:00.991Z,3.60
2018-09-25T17:56:34.913Z,6.27
2018-09-25T17:59:09.003Z,6.63
2018-09-25T18:01:42.749Z,4.17
2018-09-25T18:04:16.727Z,3.00
2018-09-25T18:06:50.559Z,4.20
2018-09-25T18:09:24.280Z,6.17
2018-09-25T18:11:58.122Z,3.67
2018-09-25T18:14:31.994Z,3.53
2018-09-25T18:17:05.879Z,4.90
2018-09-25T18:19:39.836Z,3.93
2018-09-25T18:22:13.772Z,2.07
2018-09-25T18:24:47.732Z,5.43
2018-09-25T18:27:21.657Z,4.13
2018-09-25T18:29:55.283Z,2.57
2018-09-25T18:32:29.048Z,26.87
2018-09-25T18:35:02.757Z,26.67
2018-09-25T18:37:36.620Z,16.20
2018-09-25T18:40:11.102Z,9.83
2018-09-25T18:42:45.018Z,8.27
2018-09-25T18:45:19.009Z,8.20
2018-09-25T18:47:52.923Z,7.83
2018-09-25T18:50:26.722Z,6.33
2018-09-25T18:53:00.340Z,4.73
2018-09-25T18:55:34.246Z,6.47
2018-09-25T18:58:07.988Z,10.43
2018-09-25T19:00:41.939Z,13.53
2018-09-25T19:03:15.844Z,4.87
2018-09-25T19:05:49.767Z,8.73
2018-09-25T19:08:23.455Z,6.67
2018-09-25T19:10:57.254Z,4.57
2018-09-25T19:13:31.034Z,4.80
2018-09-25T19:16:04.807Z,6.93
2018-09-25T19:18:38.615Z,5.00
2018-09-25T19:21:12.358Z,3.20
2018-09-25T19:23:46.133Z,7.67
2018-09-25T19:26:19.937Z,4.63
2018-09-25T19:28:53.750Z,5.43
2018-09-25T19:31:27.603Z,3.67
2018-09-25T19:34:01.546Z,4.90
2018-09-25T19:36:35.482Z,5.73
2018-09-25T19:39:09.551Z,7.50
2018-09-25T19:41:43.273Z,4.70
2018-09-25T19:44:17.092Z,8.07
2018-09-25T19:46:50.903Z,6.53
2018-09-25T19:49:24.770Z,5.90
2018-09-25T19:51:58.614Z,7.17
2018-09-25T19:54:32.286Z,4.77
2018-09-25T19:57:06.259Z,4.80
2018-09-25T19:59:40.115Z,4.60
2018-09-25T20:02:14.066Z,6.20
2018-09-25T20:04:47.949Z,6.20
2018-09-25T20:07:21.931Z,3.90
2018-09-25T20:09:55.761Z,7.40
2018-09-25T20:12:29.560Z,5.53
2018-09-25T20:15:03.476Z,3.97
2018-09-25T20:17:37.191Z,3.93
2018-09-25T20:20:11.726Z,3.43
2018-09-25T20:22:45.472Z,5.67
2018-09-25T20:25:19.131Z,4.70
2018-09-25T20:27:52.882Z,3.73
2018-09-25T20:30:26.476Z,3.93
2018-09-25T20:33:00.304Z,4.43
2018-09-25T20:35:34.083Z,5.10
2018-09-25T20:38:07.747Z,3.67
2018-09-25T20:40:41.542Z,3.53
2018-09-25T20:43:15.250Z,3.90
2018-09-25T20:45:49.038Z,2.57
2018-09-25T20:48:22.722Z,4.13
2018-09-25T20:50:56.487Z,3.43
2018-09-25T20:53:30.228Z,7.80
2018-09-25T20:56:04.139Z,3.00
2018-09-25T20:58:37.888Z,2.90
2018-09-25T21:01:11.745Z,3.17
2018-09-25T21:03:45.700Z,2.77
2018-09-25T21:06:20.794Z,2.60
2018-09-25T21:08:54.690Z,2.47
2018-09-25T21:11:28.662Z,3.57
2018-09-25T21:14:02.377Z,2.70
2018-09-25T21:16:36.246Z,3.07
2018-09-25T21:19:10.091Z,6.00
2018-09-25T21:21:43.933Z,3.80
2018-09-25T21:24:17.693Z,3.53
2018-09-25T21:26:51.652Z,3.53
2018-09-25T21:29:25.332Z,3.87
2018-09-25T21:31:59.165Z,4.13
2018-09-25T21:34:33.790Z,4.03
2018-09-25T21:37:07.427Z,4.67
2018-09-25T21:39:41.338Z,4.33
2018-09-25T21:42:15.152Z,3.73
2018-09-25T21:44:49.054Z,3.63
2018-09-25T21:47:22.692Z,3.13
2018-09-25T21:49:56.396Z,2.73
2018-09-25T21:52:30.065Z,3.20
2018-09-25T21:55:03.744Z,2.63
2018-09-25T21:57:37.432Z,4.77
2018-09-25T22:00:12.100Z,6.03
2018-09-25T22:02:45.862Z,3.30
2018-09-25T22:05:19.431Z,3.77
2018-09-25T22:07:53.345Z,3.57
2018-09-25T22:10:27.104Z,2.20
2018-09-25T22:13:01.098Z,4.03
2018-09-25T22:15:34.898Z,2.20
2018-09-25T22:18:08.660Z,2.60
2018-09-25T22:20:42.279Z,2.90
2018-09-25T22:23:16.095Z,3.20
2018-09-25T22:25:49.774Z,2.70
2018-09-25T22:28:23.557Z,3.37
2018-09-25T22:30:57.233Z,2.60
2018-09-25T22:33:31.127Z,2.43
2018-09-25T22:36:04.965Z,2.83
2018-09-25T22:38:38.759Z,3.30
2018-09-25T22:41:12.628Z,3.80
2018-09-25T22:43:46.385Z,2.90
2018-09-25T22:46:20.214Z,4.43
2018-09-25T22:48:53.931Z,3.00
2018-09-25T22:51:27.482Z,2.57
2018-09-25T22:54:01.381Z,3.90
2018-09-25T22:56:35.145Z,2.30
2018-09-25T22:59:09.043Z,2.13
2018-09-25T23:01:42.705Z,2.60
2018-09-25T23:04:16.440Z,4.07
2018-09-25T23:06:50.124Z,2.13
2018-09-25T23:09:23.913Z,2.97
2018-09-25T23:11:57.789Z,3.47
2018-09-25T23:14:31.768Z,3.30
2018-09-25T23:17:05.700Z,3.53
2018-09-25T23:19:39.637Z,3.77
2018-09-25T23:22:13.183Z,1.90
2018-09-25T23:24:46.859Z,2.93
2018-09-25T23:27:20.574Z,2.20
2018-09-25T23:29:54.210Z,2.10
2018-09-25T23:32:27.924Z,3.83
2018-09-25T23:35:01.723Z,2.93
2018-09-25T23:37:35.403Z,3.83
2018-09-25T23:40:38.877Z,2.70
2018-09-25T23:43:38.911Z,3.03
2018-09-25T23:47:14.560Z,1.83
2018-09-25T23:49:48.274Z,3.50
2018-09-25T23:52:21.239Z,2.87
2018-09-25T23:54:58.742Z,5.37
2018-09-25T23:57:32.537Z,2.73
